createdAt,value
2023-01-29T00:00:13.923Z,89.00
2023-01-29T00:03:01.899Z,89.00
2023-01-29T00:05:29.969Z,88.90
2023-01-29T00:07:58.161Z,88.90
2023-01-29T00:10:37.283Z,88.80
2023-01-29T00:13:05.855Z,88.80
2023-01-29T00:15:33.950Z,88.80
2023-01-29T00:18:01.600Z,88.70
2023-01-29T00:20:29.637Z,88.80
2023-01-29T00:22:57.389Z,88.70
2023-01-29T00:25:25.476Z,88.70
2023-01-29T00:27:53.154Z,88.70
2023-01-29T00:30:21.618Z,88.80
2023-01-29T00:32:51.191Z,88.70
2023-01-29T00:35:19.945Z,88.70
2023-01-29T00:37:47.601Z,88.60
2023-01-29T00:40:16.027Z,88.70
2023-01-29T00:43:04.317Z,88.80
2023-01-29T00:45:33.312Z,88.70
2023-01-29T00:48:01.116Z,88.70
2023-01-29T00:50:30.457Z,88.80
2023-01-29T00:52:58.674Z,88.80
2023-01-29T00:55:26.755Z,88.90
2023-01-29T00:57:54.503Z,88.80
2023-01-29T01:00:22.579Z,88.70
2023-01-29T01:03:08.398Z,88.70
2023-01-29T01:05:39.345Z,88.70
2023-01-29T01:08:27.110Z,88.70
2023-01-29T01:11:06.612Z,88.70
2023-01-29T01:13:35.045Z,88.60
2023-01-29T01:16:08.805Z,88.70
2023-01-29T01:18:36.763Z,88.70
2023-01-29T01:21:05.089Z,88.70
2023-01-29T01:23:33.516Z,88.60
2023-01-29T01:26:01.913Z,88.60
2023-01-29T01:28:29.610Z,88.60
2023-01-29T01:30:57.727Z,88.60
2023-01-29T01:33:25.331Z,88.60
2023-01-29T01:35:53.397Z,88.60
2023-01-29T01:38:21.968Z,88.70
2023-01-29T01:40:49.955Z,88.60
2023-01-29T01:43:17.573Z,88.60
2023-01-29T01:45:47.014Z,88.60
2023-01-29T01:48:23.508Z,88.60
2023-01-29T01:51:06.133Z,88.60
2023-01-29T01:53:38.734Z,88.50
2023-01-29T01:56:38.719Z,88.50
2023-01-29T01:59:09.841Z,88.40
2023-01-29T02:01:41.365Z,88.50
2023-01-29T02:04:33.323Z,88.50
2023-01-29T02:07:23.771Z,88.50
2023-01-29T02:10:12.781Z,88.60
2023-01-29T02:12:41.257Z,88.40
2023-01-29T02:15:10.005Z,88.40
2023-01-29T02:17:38.395Z,88.30
2023-01-29T02:20:12.676Z,88.30
2023-01-29T02:22:56.404Z,88.30
2023-01-29T02:25:49.135Z,88.30
2023-01-29T02:28:31.800Z,88.30
2023-01-29T02:31:29.388Z,88.30
2023-01-29T02:34:18.902Z,88.30
2023-01-29T02:37:09.755Z,88.30
2023-01-29T02:40:01.020Z,88.30
2023-01-29T02:42:32.607Z,88.40
2023-01-29T02:45:04.650Z,88.40
2023-01-29T02:47:32.145Z,88.40
2023-01-29T02:50:04.617Z,88.40
2023-01-29T02:52:43.565Z,88.30
2023-01-29T02:55:20.548Z,88.30
2023-01-29T02:57:51.610Z,88.20
2023-01-29T03:00:28.183Z,88.20
2023-01-29T03:03:10.966Z,88.20
2023-01-29T03:05:57.380Z,88.10
2023-01-29T03:08:45.833Z,87.90
2023-01-29T03:11:16.639Z,87.90
2023-01-29T03:14:00.108Z,87.90
2023-01-29T03:16:43.070Z,87.70
2023-01-29T03:19:20.688Z,87.70
2023-01-29T03:22:01.409Z,87.70
2023-01-29T03:24:52.777Z,87.80
2023-01-29T03:27:50.681Z,87.90
2023-01-29T03:30:38.849Z,88.20
2023-01-29T03:33:24.270Z,88.30
2023-01-29T03:36:04.066Z,88.30
2023-01-29T03:38:32.380Z,88.40
2023-01-29T03:41:09.746Z,88.50
2023-01-29T03:43:53.179Z,88.50
2023-01-29T03:46:36.834Z,88.60
2023-01-29T03:49:43.264Z,88.50
2023-01-29T03:52:53.069Z,88.30
2023-01-29T03:55:41.379Z,88.20
2023-01-29T03:58:31.478Z,88.10
2023-01-29T04:01:03.145Z,88.00
2023-01-29T04:03:41.771Z,88.00
2023-01-29T04:06:27.909Z,88.00
2023-01-29T04:09:07.402Z,88.10
2023-01-29T04:11:43.330Z,88.30
2023-01-29T04:14:12.289Z,88.40
2023-01-29T04:16:50.325Z,88.40
2023-01-29T04:19:25.746Z,88.40
2023-01-29T04:22:04.316Z,88.40
2023-01-29T04:24:32.915Z,88.30
2023-01-29T04:27:28.589Z,88.10
2023-01-29T04:30:24.246Z,87.90
2023-01-29T04:33:20.271Z,87.70
2023-01-29T04:36:07.423Z,87.70
2023-01-29T04:38:50.449Z,87.80
2023-01-29T04:41:48.900Z,87.90
2023-01-29T04:44:19.144Z,87.90
2023-01-29T04:47:05.326Z,87.90
2023-01-29T04:49:56.821Z,87.90
2023-01-29T04:52:59.084Z,87.50
2023-01-29T04:55:57.124Z,87.50
2023-01-29T04:58:36.611Z,87.60
2023-01-29T05:01:10.088Z,87.70
2023-01-29T05:03:40.801Z,87.80
2023-01-29T05:06:11.121Z,87.80
2023-01-29T05:08:40.517Z,87.70
2023-01-29T05:11:08.879Z,87.60
2023-01-29T05:13:40.099Z,87.90
2023-01-29T05:16:17.371Z,88.10
2023-01-29T05:18:45.597Z,88.00
2023-01-29T05:21:13.965Z,88.00
2023-01-29T05:23:53.415Z,88.00
2023-01-29T05:26:40.619Z,88.10
2023-01-29T05:29:08.418Z,88.10
2023-01-29T05:31:36.406Z,88.00
2023-01-29T05:34:04.171Z,88.00
2023-01-29T05:36:32.124Z,88.10
2023-01-29T05:38:59.815Z,87.90
2023-01-29T05:41:27.764Z,87.90
2023-01-29T05:43:55.479Z,88.10
2023-01-29T05:46:23.503Z,88.00
2023-01-29T05:48:53.380Z,88.00
2023-01-29T05:51:21.449Z,88.00
2023-01-29T05:53:49.135Z,88.00
2023-01-29T05:56:17.105Z,88.00
2023-01-29T05:58:44.779Z,88.10
2023-01-29T06:01:16.120Z,88.30
2023-01-29T06:03:44.214Z,88.60
2023-01-29T06:06:12.485Z,88.60
2023-01-29T06:08:40.542Z,88.60
2023-01-29T06:11:10.086Z,88.40
2023-01-29T06:13:38.649Z,88.40
2023-01-29T06:16:07.944Z,88.40
2023-01-29T06:18:36.601Z,88.20
2023-01-29T06:21:06.838Z,88.20
2023-01-29T06:23:34.744Z,88.30
2023-01-29T06:26:08.524Z,88.20
2023-01-29T06:28:36.284Z,88.10
2023-01-29T06:33:53.827Z,88.10
2023-01-29T06:36:21.872Z,87.90
2023-01-29T06:38:49.535Z,87.70
2023-01-29T06:41:19.864Z,87.70
2023-01-29T06:43:48.158Z,87.60
2023-01-29T06:46:16.101Z,87.50
2023-01-29T06:48:44.184Z,87.50
2023-01-29T06:51:12.634Z,87.50
2023-01-29T06:53:40.799Z,87.40
2023-01-29T06:56:09.383Z,87.50
2023-01-29T06:58:38.514Z,87.50
2023-01-29T07:01:17.520Z,87.50
2023-01-29T07:03:56.857Z,87.30
2023-01-29T07:06:29.922Z,87.20
2023-01-29T07:08:58.298Z,87.20
2023-01-29T07:11:26.557Z,87.30
2023-01-29T07:13:54.334Z,87.20
2023-01-29T07:16:23.937Z,87.20
2023-01-29T07:18:52.060Z,87.10
2023-01-29T07:21:20.219Z,87.20
2023-01-29T07:23:47.912Z,87.30
2023-01-29T07:26:16.864Z,87.30
2023-01-29T07:28:44.483Z,87.20
2023-01-29T07:31:15.516Z,87.20
2023-01-29T07:33:46.697Z,87.20
2023-01-29T07:36:15.362Z,87.20
2023-01-29T07:38:43.283Z,87.20
2023-01-29T07:41:12.895Z,87.10
2023-01-29T07:43:40.826Z,86.80
2023-01-29T07:46:08.895Z,86.80
2023-01-29T07:48:36.776Z,87.20
2023-01-29T07:51:05.028Z,87.20
2023-01-29T07:53:32.965Z,87.20
2023-01-29T07:56:00.940Z,87.10
2023-01-29T07:58:28.669Z,87.10
2023-01-29T08:00:56.797Z,86.90
2023-01-29T08:03:24.648Z,86.80
2023-01-29T08:05:52.574Z,86.90
2023-01-29T08:08:20.276Z,87.00
2023-01-29T08:10:48.317Z,86.70
2023-01-29T08:13:16.075Z,86.60
2023-01-29T08:15:47.491Z,86.60
2023-01-29T08:18:15.414Z,86.60
2023-01-29T08:20:44.201Z,86.60
2023-01-29T08:23:16.678Z,86.90
2023-01-29T08:25:45.029Z,86.60
2023-01-29T08:28:12.691Z,86.60
2023-01-29T08:30:40.800Z,86.80
2023-01-29T08:33:08.485Z,86.90
2023-01-29T08:35:37.102Z,87.20
2023-01-29T08:38:05.602Z,87.30
2023-01-29T08:40:35.384Z,86.80
2023-01-29T08:43:07.837Z,87.10
2023-01-29T08:45:40.136Z,86.70
2023-01-29T08:48:08.472Z,87.30
2023-01-29T08:50:37.522Z,86.80
2023-01-29T08:53:08.182Z,87.20
2023-01-29T08:55:37.807Z,86.30
2023-01-29T08:58:07.262Z,85.50
2023-01-29T09:00:35.956Z,85.50
2023-01-29T09:03:04.089Z,85.40
2023-01-29T09:05:32.112Z,85.00
2023-01-29T09:07:59.923Z,85.30
2023-01-29T09:10:28.183Z,85.70
2023-01-29T09:12:55.959Z,85.50
2023-01-29T09:15:24.314Z,85.00
2023-01-29T09:17:52.533Z,84.90
2023-01-29T09:20:20.791Z,85.50
2023-01-29T09:22:52.269Z,84.70
2023-01-29T09:25:20.759Z,83.90
2023-01-29T09:27:48.486Z,84.40
2023-01-29T09:30:17.232Z,84.40
2023-01-29T09:32:53.868Z,84.50
2023-01-29T09:35:25.777Z,84.40
2023-01-29T09:37:54.478Z,84.00
2023-01-29T09:40:31.509Z,84.00
2023-01-29T09:43:17.323Z,84.50
2023-01-29T09:45:58.799Z,84.50
2023-01-29T09:48:31.488Z,84.10
2023-01-29T09:51:03.928Z,84.40
2023-01-29T09:54:11.808Z,84.20
2023-01-29T09:56:42.437Z,84.40
2023-01-29T09:59:13.815Z,84.30
2023-01-29T10:01:56.657Z,84.20
2023-01-29T10:05:01.861Z,84.30
2023-01-29T10:08:04.755Z,84.10
2023-01-29T10:11:04.148Z,83.70
2023-01-29T10:13:51.947Z,83.40
2023-01-29T10:16:32.117Z,83.40
2023-01-29T10:19:10.688Z,84.00
2023-01-29T10:22:40.203Z,84.00
2023-01-29T10:25:15.759Z,83.90
2023-01-29T10:27:50.274Z,83.30
2023-01-29T10:30:41.405Z,83.40
2023-01-29T10:33:16.698Z,83.80
2023-01-29T10:35:50.580Z,84.00
2023-01-29T10:38:35.071Z,83.70
2023-01-29T10:41:36.845Z,83.50
2023-01-29T10:44:34.974Z,83.50
2023-01-29T10:47:29.256Z,83.60
2023-01-29T10:50:12.927Z,84.00
2023-01-29T10:53:09.573Z,84.00
2023-01-29T10:56:05.814Z,83.60
2023-01-29T10:58:45.507Z,83.60
2023-01-29T11:01:15.013Z,83.90
2023-01-29T11:03:43.200Z,84.00
2023-01-29T11:06:28.927Z,83.90
2023-01-29T11:09:10.112Z,83.40
2023-01-29T11:11:49.039Z,83.30
2023-01-29T11:14:26.713Z,83.60
2023-01-29T11:16:55.769Z,83.60
2023-01-29T11:19:39.889Z,83.70
2023-01-29T11:22:17.937Z,83.90
2023-01-29T11:24:47.006Z,83.90
2023-01-29T11:27:26.828Z,83.60
2023-01-29T11:29:56.321Z,83.50
2023-01-29T11:32:32.951Z,83.80
2023-01-29T11:35:20.022Z,83.50
2023-01-29T11:37:48.183Z,83.50
2023-01-29T11:40:19.252Z,83.70
2023-01-29T11:42:48.369Z,84.20
2023-01-29T11:45:27.966Z,84.10
2023-01-29T11:47:57.528Z,83.60
2023-01-29T11:50:28.695Z,83.80
2023-01-29T11:52:57.430Z,83.60
2023-01-29T11:55:27.518Z,83.60
2023-01-29T11:58:13.372Z,83.60
2023-01-29T12:00:46.859Z,83.70
2023-01-29T12:03:27.124Z,83.60
2023-01-29T12:05:58.841Z,83.70
2023-01-29T12:08:33.830Z,83.80
2023-01-29T12:11:15.797Z,84.00
2023-01-29T12:13:44.149Z,83.70
2023-01-29T12:16:25.738Z,84.00
2023-01-29T12:19:11.723Z,83.80
2023-01-29T12:22:05.304Z,83.80
2023-01-29T12:24:40.561Z,84.00
2023-01-29T12:27:42.272Z,84.20
2023-01-29T12:30:34.407Z,84.20
2023-01-29T12:33:18.142Z,83.90
2023-01-29T12:35:55.619Z,84.00
2023-01-29T12:38:24.616Z,83.90
2023-01-29T12:40:57.465Z,84.00
2023-01-29T12:43:44.181Z,84.00
2023-01-29T12:46:25.686Z,83.70
2023-01-29T12:48:59.209Z,83.50
2023-01-29T12:51:33.888Z,84.00
2023-01-29T12:54:17.194Z,84.10
2023-01-29T12:56:51.003Z,84.30
2023-01-29T12:59:35.651Z,83.70
2023-01-29T13:02:30.460Z,83.80
2023-01-29T13:05:19.030Z,83.50
2023-01-29T13:07:54.561Z,83.40
2023-01-29T13:10:31.028Z,83.60
2023-01-29T13:13:14.686Z,83.50
2023-01-29T13:15:45.100Z,83.60
2023-01-29T13:18:38.441Z,83.70
2023-01-29T13:21:12.805Z,83.60
2023-01-29T13:23:47.473Z,83.70
2023-01-29T13:26:21.903Z,84.00
2023-01-29T13:28:51.867Z,83.90
2023-01-29T13:31:38.303Z,83.60
2023-01-29T13:34:06.417Z,84.00
2023-01-29T13:36:38.229Z,84.30
2023-01-29T13:39:17.597Z,84.00
2023-01-29T13:41:46.251Z,84.10
2023-01-29T13:44:37.788Z,84.20
2023-01-29T13:47:13.072Z,83.80
2023-01-29T13:49:43.507Z,83.80
2023-01-29T13:52:22.933Z,83.70
2023-01-29T13:55:08.328Z,83.90
2023-01-29T13:57:45.057Z,84.10
2023-01-29T14:00:21.960Z,83.80
2023-01-29T14:03:05.409Z,83.70
2023-01-29T14:05:42.631Z,83.60
2023-01-29T14:08:34.548Z,84.00
2023-01-29T14:11:17.914Z,83.90
2023-01-29T14:13:48.058Z,84.10
2023-01-29T14:16:15.957Z,84.00
2023-01-29T14:19:06.905Z,83.70
2023-01-29T14:21:38.266Z,83.70
2023-01-29T14:24:12.259Z,83.80
2023-01-29T14:26:47.723Z,83.90
2023-01-29T14:29:33.837Z,83.90
2023-01-29T14:32:08.734Z,83.90
2023-01-29T14:34:45.792Z,84.00
2023-01-29T14:37:17.251Z,83.90
2023-01-29T14:39:58.570Z,83.90
2023-01-29T14:42:29.745Z,83.70
2023-01-29T14:45:12.531Z,83.70
2023-01-29T14:47:42.204Z,83.90
2023-01-29T14:50:36.004Z,83.80
2023-01-29T14:53:29.282Z,83.90
2023-01-29T14:56:42.023Z,83.80
2023-01-29T14:59:21.089Z,83.90
2023-01-29T15:01:59.505Z,84.00
2023-01-29T15:04:47.319Z,83.90
2023-01-29T15:07:22.264Z,83.70
2023-01-29T15:10:13.599Z,83.80
2023-01-29T15:12:56.906Z,83.90
2023-01-29T15:15:27.584Z,83.90
2023-01-29T15:18:34.931Z,84.00
2023-01-29T15:21:05.908Z,83.90
2023-01-29T15:23:36.393Z,83.70
2023-01-29T15:26:08.056Z,83.90
2023-01-29T15:28:38.484Z,83.90
2023-01-29T15:31:13.563Z,84.00
2023-01-29T15:33:45.595Z,84.00
2023-01-29T15:36:28.098Z,84.00
2023-01-29T15:39:21.754Z,84.00
2023-01-29T15:42:12.997Z,84.00
2023-01-29T15:44:46.955Z,84.00
2023-01-29T15:47:16.888Z,84.00
2023-01-29T15:49:47.700Z,84.00
2023-01-29T15:52:21.283Z,84.00
2023-01-29T15:54:52.583Z,83.90
2023-01-29T15:57:35.059Z,83.90
2023-01-29T16:00:05.589Z,84.00
2023-01-29T16:02:43.056Z,84.00
2023-01-29T16:05:19.270Z,84.00
2023-01-29T16:07:49.153Z,84.00
2023-01-29T16:10:29.017Z,84.10
2023-01-29T16:12:58.129Z,84.20
2023-01-29T16:15:40.926Z,84.30
2023-01-29T16:18:30.192Z,84.20
2023-01-29T16:21:07.296Z,84.20
2023-01-29T16:23:51.872Z,84.20
2023-01-29T16:26:33.152Z,84.30
2023-01-29T16:29:07.575Z,84.20
2023-01-29T16:31:38.914Z,84.10
2023-01-29T16:34:16.898Z,84.00
2023-01-29T16:36:49.633Z,84.10
2023-01-29T16:39:26.073Z,84.20
2023-01-29T16:42:22.574Z,84.20
2023-01-29T16:45:08.016Z,84.20
2023-01-29T16:47:40.048Z,84.30
2023-01-29T16:50:46.435Z,84.30
2023-01-29T16:53:28.034Z,84.30
2023-01-29T16:56:03.794Z,84.40
2023-01-29T16:58:32.941Z,84.20
2023-01-29T17:01:11.323Z,84.30
2023-01-29T17:03:41.980Z,84.20
2023-01-29T17:06:25.294Z,84.20
2023-01-29T17:08:56.275Z,84.20
2023-01-29T17:11:27.936Z,84.10
2023-01-29T17:13:59.189Z,84.00
2023-01-29T17:16:32.240Z,84.10
2023-01-29T17:19:02.681Z,84.10
2023-01-29T17:21:32.137Z,84.10
2023-01-29T17:24:02.661Z,84.10
2023-01-29T17:26:32.635Z,84.10
2023-01-29T17:29:02.050Z,84.00
2023-01-29T17:31:30.953Z,84.00
2023-01-29T17:34:00.479Z,84.00
2023-01-29T17:36:30.674Z,84.00
2023-01-29T17:39:01.976Z,84.00
2023-01-29T17:41:32.009Z,84.10
2023-01-29T17:44:02.227Z,84.10
2023-01-29T17:46:31.136Z,84.20
2023-01-29T17:49:01.218Z,84.10
2023-01-29T17:51:29.819Z,84.10
2023-01-29T17:53:59.702Z,84.00
2023-01-29T17:56:28.757Z,84.10
2023-01-29T17:58:59.992Z,84.00
2023-01-29T18:01:31.044Z,83.90
2023-01-29T18:04:03.139Z,83.70
2023-01-29T18:06:32.160Z,83.70
2023-01-29T18:09:01.808Z,83.70
2023-01-29T18:11:31.200Z,83.70
2023-01-29T18:14:07.578Z,83.70
2023-01-29T18:16:45.460Z,83.70
2023-01-29T18:19:20.952Z,83.70
2023-01-29T18:21:53.103Z,83.60
2023-01-29T18:24:27.160Z,83.50
2023-01-29T18:26:59.475Z,83.40
2023-01-29T18:29:31.971Z,83.40
2023-01-29T18:32:01.988Z,83.30
2023-01-29T18:34:30.439Z,83.40
2023-01-29T18:37:01.064Z,83.40
2023-01-29T18:39:33.885Z,83.40
2023-01-29T18:42:02.445Z,83.30
2023-01-29T18:44:33.821Z,83.20
2023-01-29T18:47:03.030Z,83.30
2023-01-29T18:49:39.761Z,83.20
2023-01-29T18:52:09.177Z,83.30
2023-01-29T18:54:42.097Z,83.40
2023-01-29T18:59:53.768Z,83.40
2023-01-29T19:02:22.778Z,83.30
2023-01-29T19:04:52.457Z,83.30
2023-01-29T19:07:22.497Z,83.40
2023-01-29T19:09:55.220Z,83.50
2023-01-29T19:12:25.097Z,83.50
2023-01-29T19:14:56.118Z,83.30
2023-01-29T19:17:25.387Z,83.30
2023-01-29T19:20:02.204Z,83.20
2023-01-29T19:22:34.556Z,83.20
2023-01-29T19:25:05.970Z,83.20
2023-01-29T19:27:35.097Z,83.20
2023-01-29T19:30:06.565Z,83.20
2023-01-29T19:32:36.101Z,83.30
2023-01-29T19:35:05.718Z,83.40
2023-01-29T19:37:35.107Z,83.50
2023-01-29T19:40:05.141Z,83.50
2023-01-29T19:42:34.213Z,83.50
2023-01-29T19:45:04.174Z,83.50
2023-01-29T19:47:36.602Z,83.40
2023-01-29T19:50:07.358Z,83.40
2023-01-29T19:52:52.133Z,83.40
2023-01-29T19:55:23.654Z,83.40
2023-01-29T19:57:58.864Z,83.40
2023-01-29T20:00:28.078Z,83.30
2023-01-29T20:02:57.400Z,83.40
2023-01-29T20:05:29.462Z,83.40
2023-01-29T20:07:59.763Z,83.40
2023-01-29T20:10:32.632Z,83.40
2023-01-29T20:13:06.776Z,83.50
2023-01-29T20:15:35.864Z,83.50
2023-01-29T20:18:12.481Z,83.40
2023-01-29T20:20:49.990Z,83.20
2023-01-29T20:23:31.699Z,83.20
2023-01-29T20:26:13.897Z,83.40
2023-01-29T20:29:16.371Z,83.30
2023-01-29T20:31:46.038Z,83.30
2023-01-29T20:34:14.640Z,83.30
2023-01-29T20:36:44.582Z,83.20
2023-01-29T20:39:15.121Z,83.10
2023-01-29T20:41:45.117Z,83.30
2023-01-29T20:44:14.317Z,83.30
2023-01-29T20:46:43.921Z,83.20
2023-01-29T20:49:13.185Z,83.00
2023-01-29T20:51:43.469Z,83.20
2023-01-29T20:54:15.121Z,83.30
2023-01-29T20:56:47.844Z,83.20
2023-01-29T20:59:16.802Z,83.20
2023-01-29T21:01:46.677Z,83.10
2023-01-29T21:04:15.632Z,83.10
2023-01-29T21:06:51.599Z,83.00
2023-01-29T21:09:21.209Z,83.00
2023-01-29T21:11:51.388Z,82.90
2023-01-29T21:14:21.329Z,82.90
2023-01-29T21:16:50.561Z,82.90
2023-01-29T21:19:20.500Z,83.00
2023-01-29T21:21:49.921Z,82.90
2023-01-29T21:24:19.215Z,82.80
2023-01-29T21:26:48.293Z,82.80
2023-01-29T21:29:16.364Z,82.80
2023-01-29T21:31:45.239Z,82.70
2023-01-29T21:34:14.497Z,82.70
2023-01-29T21:36:43.027Z,82.70
2023-01-29T21:39:16.907Z,82.70
2023-01-29T21:42:04.253Z,82.60
2023-01-29T21:44:33.639Z,82.70
2023-01-29T21:47:12.823Z,82.80
2023-01-29T21:49:42.136Z,82.70
2023-01-29T21:52:12.240Z,82.80
2023-01-29T21:54:40.955Z,82.70
2023-01-29T21:57:13.481Z,82.80
2023-01-29T21:59:41.615Z,82.60
2023-01-29T22:02:16.034Z,82.50
2023-01-29T22:04:44.467Z,82.50
2023-01-29T22:07:13.300Z,82.30
2023-01-29T22:09:41.299Z,82.50
2023-01-29T22:12:09.447Z,82.40
2023-01-29T22:14:37.105Z,82.20
2023-01-29T22:17:05.433Z,82.30
2023-01-29T22:19:33.387Z,82.30
2023-01-29T22:22:01.567Z,82.20
2023-01-29T22:24:29.222Z,82.20
2023-01-29T22:26:57.281Z,82.10
2023-01-29T22:29:25.025Z,82.20
2023-01-29T22:31:52.991Z,82.20
2023-01-29T22:34:20.594Z,82.10
2023-01-29T22:36:48.612Z,82.00
2023-01-29T22:39:16.230Z,82.00
2023-01-29T22:41:44.155Z,82.00
2023-01-29T22:44:11.983Z,82.00
2023-01-29T22:46:40.138Z,82.00
2023-01-29T22:49:07.690Z,81.70
2023-01-29T22:51:35.704Z,81.40
2023-01-29T22:54:03.442Z,81.60
2023-01-29T22:56:31.518Z,81.70
2023-01-29T22:59:01.093Z,81.60
2023-01-29T23:01:32.296Z,81.80
2023-01-29T23:04:00.056Z,81.80
2023-01-29T23:06:28.068Z,81.90
2023-01-29T23:08:55.684Z,81.60
2023-01-29T23:11:24.045Z,81.70
2023-01-29T23:13:54.086Z,81.60
2023-01-29T23:16:26.958Z,81.70
2023-01-29T23:18:56.434Z,81.80
2023-01-29T23:21:25.346Z,81.70
2023-01-29T23:23:54.418Z,81.70
2023-01-29T23:27:00.728Z,81.70
2023-01-29T23:29:28.471Z,81.60
2023-01-29T23:35:19.284Z,81.50
2023-01-29T23:37:47.335Z,81.40
2023-01-29T23:40:15.454Z,81.20
2023-01-29T23:42:43.675Z,81.40
2023-01-29T23:45:11.611Z,81.50
2023-01-29T23:47:39.641Z,81.40
2023-01-29T23:50:07.754Z,81.50
2023-01-29T23:52:35.914Z,81.50
2023-01-29T23:55:03.606Z,81.30
2023-01-29T23:57:31.580Z,81.50
2023-01-29T23:59:59.190Z,81.40
